sensor_id;sensor_type;location;lat;lon;timestamp;temperature;humidity
5802;DHT22;2927;49.366;8.530;2022-09-12T00:00:41;15.50;99.90
5802;DHT22;2927;49.366;8.530;2022-09-12T00:03:07;15.50;99.90
5802;DHT22;2927;49.366;8.530;2022-09-12T00:05:32;15.40;99.90
5802;DHT22;2927;49.366;8.530;2022-09-12T00:07:59;15.50;99.90
5802;DHT22;2927;49.366;8.530;2022-09-12T00:10:25;15.40;99.90
5802;DHT22;2927;49.366;8.530;2022-09-12T00:12:51;15.30;99.90
5802;DHT22;2927;49.366;8.530;2022-09-12T00:15:16;15.40;99.90
5802;DHT22;2927;49.366;8.530;2022-09-12T00:17:42;15.50;99.90
5802;DHT22;2927;49.366;8.530;2022-09-12T00:20:08;15.50;99.90
5802;DHT22;2927;49.366;8.530;2022-09-12T00:22:35;15.50;99.90
5802;DHT22;2927;49.366;8.530;2022-09-12T00:25:01;15.60;99.90
5802;DHT22;2927;49.366;8.530;2022-09-12T00:27:27;15.60;99.90
5802;DHT22;2927;49.366;8.530;2022-09-12T00:29:53;15.60;99.90
5802;DHT22;2927;49.366;8.530;2022-09-12T00:32:19;15.50;99.90
5802;DHT22;2927;49.366;8.530;2022-09-12T00:34:44;15.50;99.90
5802;DHT22;2927;49.366;8.530;2022-09-12T00:37:10;15.50;99.90
5802;DHT22;2927;49.366;8.530;2022-09-12T00:39:36;15.40;99.90
5802;DHT22;2927;49.366;8.530;2022-09-12T00:42:01;15.30;99.90
5802;DHT22;2927;49.366;8.530;2022-09-12T00:52:18;15.30;99.90
5802;DHT22;2927;49.366;8.530;2022-09-12T00:55:04;15.20;99.90
5802;DHT22;2927;49.366;8.530;2022-09-12T00:57:37;15.10;99.90
5802;DHT22;2927;49.366;8.530;2022-09-12T01:00:15;15.10;99.90
5802;DHT22;2927;49.366;8.530;2022-09-12T01:02:49;15.10;99.90
5802;DHT22;2927;49.366;8.530;2022-09-12T01:05:16;15.10;99.90
5802;DHT22;2927;49.366;8.530;2022-09-12T01:07:42;15.00;99.90
5802;DHT22;2927;49.366;8.530;2022-09-12T01:10:09;14.90;99.90
5802;DHT22;2927;49.366;8.530;2022-09-12T01:12:38;14.90;99.90
5802;DHT22;2927;49.366;8.530;2022-09-12T01:15:04;15.00;99.90
5802;DHT22;2927;49.366;8.530;2022-09-12T01:18:02;15.00;99.90
5802;DHT22;2927;49.366;8.530;2022-09-12T01:20:45;14.80;99.90
5802;DHT22;2927;49.366;8.530;2022-09-12T01:26:40;14.90;99.90
5802;DHT22;2927;49.366;8.530;2022-09-12T01:32:15;14.90;99.90
5802;DHT22;2927;49.366;8.530;2022-09-12T01:34:48;14.90;99.90
5802;DHT22;2927;49.366;8.530;2022-09-12T01:37:41;14.80;99.90
5802;DHT22;2927;49.366;8.530;2022-09-12T01:40:28;14.70;99.90
5802;DHT22;2927;49.366;8.530;2022-09-12T01:43:16;14.70;99.90
5802;DHT22;2927;49.366;8.530;2022-09-12T01:45:46;14.60;99.90
5802;DHT22;2927;49.366;8.530;2022-09-12T01:48:19;14.60;99.90
5802;DHT22;2927;49.366;8.530;2022-09-12T01:50:51;14.60;99.90
5802;DHT22;2927;49.366;8.530;2022-09-12T01:53:37;14.70;99.90
5802;DHT22;2927;49.366;8.530;2022-09-12T01:56:20;14.60;99.90
5802;DHT22;2927;49.366;8.530;2022-09-12T01:59:00;14.50;99.90
5802;DHT22;2927;49.366;8.530;2022-09-12T02:01:30;14.70;99.90
5802;DHT22;2927;49.366;8.530;2022-09-12T02:04:15;14.70;99.90
5802;DHT22;2927;49.366;8.530;2022-09-12T02:09:44;14.70;99.90
5802;DHT22;2927;49.366;8.530;2022-09-12T02:12:13;14.60;99.90
5802;DHT22;2927;49.366;8.530;2022-09-12T02:14:45;14.60;99.90
5802;DHT22;2927;49.366;8.530;2022-09-12T02:17:14;14.50;99.90
5802;DHT22;2927;49.366;8.530;2022-09-12T02:20:02;14.50;99.90
5802;DHT22;2927;49.366;8.530;2022-09-12T02:22:30;14.40;99.90
5802;DHT22;2927;49.366;8.530;2022-09-12T02:24:59;14.40;99.90
5802;DHT22;2927;49.366;8.530;2022-09-12T02:27:43;14.40;99.90
5802;DHT22;2927;49.366;8.530;2022-09-12T02:30:10;14.50;99.90
5802;DHT22;2927;49.366;8.530;2022-09-12T02:33:00;14.50;99.90
5802;DHT22;2927;49.366;8.530;2022-09-12T02:36:03;14.40;99.90
5802;DHT22;2927;49.366;8.530;2022-09-12T02:38:37;14.40;99.90
5802;DHT22;2927;49.366;8.530;2022-09-12T02:41:05;14.40;99.90
5802;DHT22;2927;49.366;8.530;2022-09-12T02:43:31;14.40;99.90
5802;DHT22;2927;49.366;8.530;2022-09-12T02:45:57;14.30;99.90
5802;DHT22;2927;49.366;8.530;2022-09-12T02:48:27;14.30;99.90
5802;DHT22;2927;49.366;8.530;2022-09-12T02:50:53;14.20;99.90
5802;DHT22;2927;49.366;8.530;2022-09-12T02:53:19;14.20;99.90
5802;DHT22;2927;49.366;8.530;2022-09-12T02:55:45;14.20;99.90
5802;DHT22;2927;49.366;8.530;2022-09-12T02:58:15;14.10;99.90
5802;DHT22;2927;49.366;8.530;2022-09-12T03:01:13;14.10;99.90
5802;DHT22;2927;49.366;8.530;2022-09-12T03:20:12;14.10;99.90
5802;DHT22;2927;49.366;8.530;2022-09-12T03:25:27;14.00;99.90
5802;DHT22;2927;49.366;8.530;2022-09-12T03:28:11;14.00;99.90
5802;DHT22;2927;49.366;8.530;2022-09-12T03:30:40;14.00;99.90
5802;DHT22;2927;49.366;8.530;2022-09-12T03:33:09;14.10;99.90
5802;DHT22;2927;49.366;8.530;2022-09-12T03:35:34;14.10;99.90
5802;DHT22;2927;49.366;8.530;2022-09-12T03:38:00;14.00;99.90
5802;DHT22;2927;49.366;8.530;2022-09-12T03:40:25;13.90;99.90
5802;DHT22;2927;49.366;8.530;2022-09-12T03:42:51;13.80;99.90
5802;DHT22;2927;49.366;8.530;2022-09-12T03:45:16;13.70;99.90
5802;DHT22;2927;49.366;8.530;2022-09-12T03:47:42;13.80;99.90
5802;DHT22;2927;49.366;8.530;2022-09-12T03:50:07;13.80;99.90
5802;DHT22;2927;49.366;8.530;2022-09-12T03:52:33;13.90;99.90
5802;DHT22;2927;49.366;8.530;2022-09-12T03:54:59;13.90;99.90
5802;DHT22;2927;49.366;8.530;2022-09-12T03:57:24;13.90;99.90
5802;DHT22;2927;49.366;8.530;2022-09-12T03:59:50;13.90;99.90
5802;DHT22;2927;49.366;8.530;2022-09-12T04:02:16;13.90;99.90
5802;DHT22;2927;49.366;8.530;2022-09-12T04:04:42;13.80;99.90
5802;DHT22;2927;49.366;8.530;2022-09-12T04:07:09;13.80;99.90
5802;DHT22;2927;49.366;8.530;2022-09-12T04:09:35;13.70;99.90
5802;DHT22;2927;49.366;8.530;2022-09-12T04:12:00;13.70;99.90
5802;DHT22;2927;49.366;8.530;2022-09-12T04:14:26;13.60;99.90
5802;DHT22;2927;49.366;8.530;2022-09-12T04:16:51;13.60;99.90
5802;DHT22;2927;49.366;8.530;2022-09-12T04:19:17;13.70;99.90
5802;DHT22;2927;49.366;8.530;2022-09-12T04:21:42;13.80;99.90
5802;DHT22;2927;49.366;8.530;2022-09-12T04:24:08;13.70;99.90
5802;DHT22;2927;49.366;8.530;2022-09-12T04:26:33;13.60;99.90
5802;DHT22;2927;49.366;8.530;2022-09-12T04:28:59;13.70;99.90
5802;DHT22;2927;49.366;8.530;2022-09-12T04:31:25;13.70;99.90
5802;DHT22;2927;49.366;8.530;2022-09-12T04:33:59;13.60;99.90
5802;DHT22;2927;49.366;8.530;2022-09-12T04:36:26;13.60;99.90
5802;DHT22;2927;49.366;8.530;2022-09-12T04:38:53;13.60;99.90
5802;DHT22;2927;49.366;8.530;2022-09-12T04:41:22;13.70;99.90
5802;DHT22;2927;49.366;8.530;2022-09-12T04:43:51;13.80;99.90
5802;DHT22;2927;49.366;8.530;2022-09-12T04:46:17;13.70;99.90
5802;DHT22;2927;49.366;8.530;2022-09-12T04:48:45;13.70;99.90
5802;DHT22;2927;49.366;8.530;2022-09-12T04:51:14;13.70;99.90
5802;DHT22;2927;49.366;8.530;2022-09-12T04:53:41;13.70;99.90
5802;DHT22;2927;49.366;8.530;2022-09-12T04:56:09;13.70;99.90
5802;DHT22;2927;49.366;8.530;2022-09-12T04:58:35;13.80;99.90
5802;DHT22;2927;49.366;8.530;2022-09-12T05:03:30;13.70;99.90
5802;DHT22;2927;49.366;8.530;2022-09-12T05:05:56;13.70;99.90
5802;DHT22;2927;49.366;8.530;2022-09-12T05:08:22;13.70;99.90
5802;DHT22;2927;49.366;8.530;2022-09-12T05:10:47;13.80;99.90
5802;DHT22;2927;49.366;8.530;2022-09-12T05:13:13;13.70;99.90
5802;DHT22;2927;49.366;8.530;2022-09-12T05:15:38;13.80;99.90
5802;DHT22;2927;49.366;8.530;2022-09-12T05:18:04;13.80;99.90
5802;DHT22;2927;49.366;8.530;2022-09-12T05:20:32;13.80;99.90
5802;DHT22;2927;49.366;8.530;2022-09-12T05:22:58;13.90;99.90
5802;DHT22;2927;49.366;8.530;2022-09-12T05:25:24;13.80;99.90
5802;DHT22;2927;49.366;8.530;2022-09-12T05:27:51;13.90;99.90
5802;DHT22;2927;49.366;8.530;2022-09-12T05:30:17;13.80;99.90
5802;DHT22;2927;49.366;8.530;2022-09-12T05:32:43;13.80;99.90
5802;DHT22;2927;49.366;8.530;2022-09-12T05:35:08;13.80;99.90
5802;DHT22;2927;49.366;8.530;2022-09-12T05:37:34;13.80;99.90
5802;DHT22;2927;49.366;8.530;2022-09-12T05:39:59;13.90;99.90
5802;DHT22;2927;49.366;8.530;2022-09-12T05:42:29;14.00;99.90
5802;DHT22;2927;49.366;8.530;2022-09-12T05:44:54;14.10;99.90
5802;DHT22;2927;49.366;8.530;2022-09-12T05:47:20;14.20;99.90
5802;DHT22;2927;49.366;8.530;2022-09-12T05:49:45;14.20;99.90
5802;DHT22;2927;49.366;8.530;2022-09-12T05:52:12;14.30;99.90
5802;DHT22;2927;49.366;8.530;2022-09-12T05:54:37;14.30;99.90
5802;DHT22;2927;49.366;8.530;2022-09-12T05:57:03;14.30;99.90
5802;DHT22;2927;49.366;8.530;2022-09-12T05:59:29;14.20;99.90
5802;DHT22;2927;49.366;8.530;2022-09-12T06:01:54;14.30;99.90
5802;DHT22;2927;49.366;8.530;2022-09-12T06:04:20;14.30;99.90
5802;DHT22;2927;49.366;8.530;2022-09-12T06:06:45;14.40;99.90
5802;DHT22;2927;49.366;8.530;2022-09-12T06:09:13;14.40;99.90
5802;DHT22;2927;49.366;8.530;2022-09-12T06:11:39;14.50;99.90
5802;DHT22;2927;49.366;8.530;2022-09-12T06:14:05;14.60;99.90
5802;DHT22;2927;49.366;8.530;2022-09-12T06:16:33;14.70;99.90
5802;DHT22;2927;49.366;8.530;2022-09-12T06:19:05;14.80;99.90
5802;DHT22;2927;49.366;8.530;2022-09-12T06:21:31;14.90;99.90
5802;DHT22;2927;49.366;8.530;2022-09-12T06:23:59;15.00;99.90
5802;DHT22;2927;49.366;8.530;2022-09-12T06:26:25;15.20;99.90
5802;DHT22;2927;49.366;8.530;2022-09-12T06:28:53;15.40;99.90
5802;DHT22;2927;49.366;8.530;2022-09-12T06:31:27;15.60;99.90
5802;DHT22;2927;49.366;8.530;2022-09-12T06:33:54;15.70;99.90
5802;DHT22;2927;49.366;8.530;2022-09-12T06:36:25;16.00;99.90
5802;DHT22;2927;49.366;8.530;2022-09-12T06:38:56;16.10;99.90
5802;DHT22;2927;49.366;8.530;2022-09-12T06:41:23;16.30;99.90
5802;DHT22;2927;49.366;8.530;2022-09-12T06:43:49;16.50;99.90
5802;DHT22;2927;49.366;8.530;2022-09-12T06:46:15;16.60;99.90
5802;DHT22;2927;49.366;8.530;2022-09-12T06:48:41;16.90;99.90
5802;DHT22;2927;49.366;8.530;2022-09-12T06:51:09;16.80;99.90
5802;DHT22;2927;49.366;8.530;2022-09-12T06:53:36;16.50;99.90
5802;DHT22;2927;49.366;8.530;2022-09-12T06:56:04;16.30;99.90
5802;DHT22;2927;49.366;8.530;2022-09-12T06:58:31;16.60;99.90
5802;DHT22;2927;49.366;8.530;2022-09-12T07:01:06;16.70;99.90
5802;DHT22;2927;49.366;8.530;2022-09-12T07:03:32;16.60;99.90
5802;DHT22;2927;49.366;8.530;2022-09-12T07:06:09;16.60;99.90
5802;DHT22;2927;49.366;8.530;2022-09-12T07:08:36;16.40;99.90
5802;DHT22;2927;49.366;8.530;2022-09-12T07:11:14;16.80;99.90
5802;DHT22;2927;49.366;8.530;2022-09-12T07:13:41;17.20;99.90
5802;DHT22;2927;49.366;8.530;2022-09-12T07:16:08;17.40;99.90
5802;DHT22;2927;49.366;8.530;2022-09-12T07:18:35;17.40;99.90
5802;DHT22;2927;49.366;8.530;2022-09-12T07:21:03;17.20;99.90
5802;DHT22;2927;49.366;8.530;2022-09-12T07:23:29;17.00;99.90
5802;DHT22;2927;49.366;8.530;2022-09-12T07:25:56;17.30;99.90
5802;DHT22;2927;49.366;8.530;2022-09-12T07:28:31;17.60;99.90
5802;DHT22;2927;49.366;8.530;2022-09-12T07:31:00;18.20;99.90
5802;DHT22;2927;49.366;8.530;2022-09-12T07:33:28;18.50;1.00
5802;DHT22;2927;49.366;8.530;2022-09-12T07:35:54;18.90;1.00
5802;DHT22;2927;49.366;8.530;2022-09-12T07:38:24;18.80;1.00
5802;DHT22;2927;49.366;8.530;2022-09-12T07:40:50;19.50;1.00
5802;DHT22;2927;49.366;8.530;2022-09-12T07:43:15;19.70;1.00
5802;DHT22;2927;49.366;8.530;2022-09-12T07:45:41;19.70;99.90
5802;DHT22;2927;49.366;8.530;2022-09-12T07:48:08;19.70;1.00
5802;DHT22;2927;49.366;8.530;2022-09-12T07:50:33;19.00;1.00
5802;DHT22;2927;49.366;8.530;2022-09-12T07:53:01;19.80;1.00
5802;DHT22;2927;49.366;8.530;2022-09-12T07:55:28;19.70;99.90
5802;DHT22;2927;49.366;8.530;2022-09-12T07:57:53;19.90;1.00
5802;DHT22;2927;49.366;8.530;2022-09-12T08:00:20;19.90;1.00
5802;DHT22;2927;49.366;8.530;2022-09-12T08:02:52;19.90;1.00
5802;DHT22;2927;49.366;8.530;2022-09-12T08:05:19;20.20;99.90
5802;DHT22;2927;49.366;8.530;2022-09-12T08:07:47;20.40;99.90
5802;DHT22;2927;49.366;8.530;2022-09-12T08:10:14;20.70;1.00
5802;DHT22;2927;49.366;8.530;2022-09-12T08:12:40;20.60;99.90
5802;DHT22;2927;49.366;8.530;2022-09-12T08:15:06;20.80;1.00
5802;DHT22;2927;49.366;8.530;2022-09-12T08:17:31;20.90;1.00
5802;DHT22;2927;49.366;8.530;2022-09-12T08:19:57;20.90;1.00
5802;DHT22;2927;49.366;8.530;2022-09-12T08:22:23;21.00;1.00
5802;DHT22;2927;49.366;8.530;2022-09-12T08:24:48;21.00;1.00
5802;DHT22;2927;49.366;8.530;2022-09-12T08:27:14;20.70;1.00
5802;DHT22;2927;49.366;8.530;2022-09-12T08:29:40;20.60;1.00
5802;DHT22;2927;49.366;8.530;2022-09-12T08:32:06;20.70;1.00
5802;DHT22;2927;49.366;8.530;2022-09-12T08:34:31;21.10;99.90
5802;DHT22;2927;49.366;8.530;2022-09-12T08:36:57;21.70;99.90
5802;DHT22;2927;49.366;8.530;2022-09-12T08:39:22;21.80;1.00
5802;DHT22;2927;49.366;8.530;2022-09-12T08:41:58;21.40;99.90
5802;DHT22;2927;49.366;8.530;2022-09-12T08:47:41;21.90;99.90
5802;DHT22;2927;49.366;8.530;2022-09-12T08:52:57;21.90;1.00
5802;DHT22;2927;49.366;8.530;2022-09-12T08:55:39;22.00;1.00
5802;DHT22;2927;49.366;8.530;2022-09-12T08:58:19;22.10;99.90
5802;DHT22;2927;49.366;8.530;2022-09-12T09:00:54;22.30;99.90
5802;DHT22;2927;49.366;8.530;2022-09-12T09:03:26;22.40;1.00
5802;DHT22;2927;49.366;8.530;2022-09-12T09:06:18;22.20;1.00
5802;DHT22;2927;49.366;8.530;2022-09-12T09:09:11;22.20;1.00
5802;DHT22;2927;49.366;8.530;2022-09-12T09:11:55;23.00;1.00
5802;DHT22;2927;49.366;8.530;2022-09-12T09:14:41;23.60;1.00
5802;DHT22;2927;49.366;8.530;2022-09-12T09:17:28;23.20;1.00
5802;DHT22;2927;49.366;8.530;2022-09-12T09:22:42;23.30;1.00
5802;DHT22;2927;49.366;8.530;2022-09-12T09:25:15;23.60;1.00
5802;DHT22;2927;49.366;8.530;2022-09-12T09:27:56;24.00;99.90
5802;DHT22;2927;49.366;8.530;2022-09-12T09:30:23;24.30;99.90
5802;DHT22;2927;49.366;8.530;2022-09-12T09:32:51;24.10;99.90
5802;DHT22;2927;49.366;8.530;2022-09-12T09:35:28;24.10;99.90
5802;DHT22;2927;49.366;8.530;2022-09-12T09:41:06;23.80;99.90
5802;DHT22;2927;49.366;8.530;2022-09-12T09:43:36;23.80;99.90
5802;DHT22;2927;49.366;8.530;2022-09-12T09:46:02;23.70;99.90
5802;DHT22;2927;49.366;8.530;2022-09-12T09:48:30;23.60;99.90
5802;DHT22;2927;49.366;8.530;2022-09-12T09:50:59;23.60;99.90
5802;DHT22;2927;49.366;8.530;2022-09-12T09:53:51;23.10;99.90
5802;DHT22;2927;49.366;8.530;2022-09-12T09:56:37;22.70;1.00
5802;DHT22;2927;49.366;8.530;2022-09-12T09:59:25;22.90;1.00
5802;DHT22;2927;49.366;8.530;2022-09-12T10:01:51;22.60;1.00
5802;DHT22;2927;49.366;8.530;2022-09-12T10:04:24;23.00;1.00
5802;DHT22;2927;49.366;8.530;2022-09-12T10:06:52;23.30;99.90
5802;DHT22;2927;49.366;8.530;2022-09-12T10:09:22;22.80;99.90
5802;DHT22;2927;49.366;8.530;2022-09-12T10:11:49;23.10;99.90
5802;DHT22;2927;49.366;8.530;2022-09-12T10:16:56;23.70;99.90
5802;DHT22;2927;49.366;8.530;2022-09-12T10:19:36;23.70;99.90
5802;DHT22;2927;49.366;8.530;2022-09-12T10:22:03;23.80;99.90
5802;DHT22;2927;49.366;8.530;2022-09-12T10:24:34;23.70;99.90
5802;DHT22;2927;49.366;8.530;2022-09-12T10:27:13;23.50;99.90
5802;DHT22;2927;49.366;8.530;2022-09-12T10:30:16;23.50;99.90
5802;DHT22;2927;49.366;8.530;2022-09-12T10:32:45;23.30;99.90
5802;DHT22;2927;49.366;8.530;2022-09-12T10:35:23;23.40;99.90
5802;DHT22;2927;49.366;8.530;2022-09-12T10:37:57;23.90;99.90
5802;DHT22;2927;49.366;8.530;2022-09-12T10:40:26;24.10;63.90
5802;DHT22;2927;49.366;8.530;2022-09-12T10:42:57;24.00;13.50
5802;DHT22;2927;49.366;8.530;2022-09-12T10:45:25;23.90;1.00
5802;DHT22;2927;49.366;8.530;2022-09-12T10:47:52;23.70;1.00
5802;DHT22;2927;49.366;8.530;2022-09-12T10:50:20;23.70;29.10
5802;DHT22;2927;49.366;8.530;2022-09-12T10:52:46;23.70;21.60
5802;DHT22;2927;49.366;8.530;2022-09-12T10:55:13;24.00;63.00
5802;DHT22;2927;49.366;8.530;2022-09-12T10:57:59;23.70;1.00
5802;DHT22;2927;49.366;8.530;2022-09-12T11:00:29;24.00;6.90
5802;DHT22;2927;49.366;8.530;2022-09-12T11:03:14;24.10;1.00
5802;DHT22;2927;49.366;8.530;2022-09-12T11:11:38;23.60;99.90
5802;DHT22;2927;49.366;8.530;2022-09-12T11:14:21;23.70;90.70
5802;DHT22;2927;49.366;8.530;2022-09-12T11:16:55;23.70;99.90
5802;DHT22;2927;49.366;8.530;2022-09-12T11:19:49;23.90;1.00
5802;DHT22;2927;49.366;8.530;2022-09-12T11:25:14;24.00;1.00
5802;DHT22;2927;49.366;8.530;2022-09-12T11:30:18;23.40;1.00
5802;DHT22;2927;49.366;8.530;2022-09-12T11:35:25;24.10;1.00
5802;DHT22;2927;49.366;8.530;2022-09-12T11:38:13;24.20;1.00
5802;DHT22;2927;49.366;8.530;2022-09-12T11:41:22;24.20;1.00
5802;DHT22;2927;49.366;8.530;2022-09-12T11:44:03;24.40;1.00
5802;DHT22;2927;49.366;8.530;2022-09-12T11:46:35;24.30;1.00
5802;DHT22;2927;49.366;8.530;2022-09-12T11:52:02;24.30;1.00
5802;DHT22;2927;49.366;8.530;2022-09-12T11:57:56;24.20;1.00
5802;DHT22;2927;49.366;8.530;2022-09-12T12:00:31;24.20;1.00
5802;DHT22;2927;49.366;8.530;2022-09-12T12:03:24;24.50;1.00
5802;DHT22;2927;49.366;8.530;2022-09-12T12:06:02;24.50;1.00
5802;DHT22;2927;49.366;8.530;2022-09-12T12:08:30;24.70;1.00
5802;DHT22;2927;49.366;8.530;2022-09-12T12:11:03;24.60;1.00
5802;DHT22;2927;49.366;8.530;2022-09-12T12:13:32;24.70;1.00
5802;DHT22;2927;49.366;8.530;2022-09-12T12:16:01;24.60;1.00
5802;DHT22;2927;49.366;8.530;2022-09-12T12:18:31;24.80;1.00
5802;DHT22;2927;49.366;8.530;2022-09-12T12:34:38;24.30;1.00
5802;DHT22;2927;49.366;8.530;2022-09-12T12:45:02;24.50;1.00
5802;DHT22;2927;49.366;8.530;2022-09-12T12:50:19;24.50;1.00
5802;DHT22;2927;49.366;8.530;2022-09-12T12:55:36;24.50;1.00
5802;DHT22;2927;49.366;8.530;2022-09-12T12:58:04;24.60;1.00
5802;DHT22;2927;49.366;8.530;2022-09-12T13:00:33;24.60;1.00
5802;DHT22;2927;49.366;8.530;2022-09-12T13:05:49;24.40;1.00
5802;DHT22;2927;49.366;8.530;2022-09-12T13:10:51;24.60;1.00
5802;DHT22;2927;49.366;8.530;2022-09-12T13:13:24;24.60;1.00
5802;DHT22;2927;49.366;8.530;2022-09-12T13:15:51;24.90;1.00
5802;DHT22;2927;49.366;8.530;2022-09-12T13:21:15;25.00;1.00
5802;DHT22;2927;49.366;8.530;2022-09-12T13:23:42;25.10;1.00
5802;DHT22;2927;49.366;8.530;2022-09-12T13:26:11;25.30;1.00
5802;DHT22;2927;49.366;8.530;2022-09-12T13:28:37;25.20;1.00
5802;DHT22;2927;49.366;8.530;2022-09-12T13:33:44;25.30;1.00
5802;DHT22;2927;49.366;8.530;2022-09-12T13:39:23;25.20;1.00
5802;DHT22;2927;49.366;8.530;2022-09-12T13:44:42;25.40;1.00
5802;DHT22;2927;49.366;8.530;2022-09-12T13:47:14;25.10;1.00
5802;DHT22;2927;49.366;8.530;2022-09-12T13:49:41;25.20;1.00
5802;DHT22;2927;49.366;8.530;2022-09-12T13:52:19;25.20;1.00
5802;DHT22;2927;49.366;8.530;2022-09-12T13:54:48;25.20;1.00
5802;DHT22;2927;49.366;8.530;2022-09-12T13:57:36;25.20;1.00
5802;DHT22;2927;49.366;8.530;2022-09-12T14:00:14;25.20;1.00
5802;DHT22;2927;49.366;8.530;2022-09-12T14:02:44;25.40;1.00
5802;DHT22;2927;49.366;8.530;2022-09-12T14:05:21;25.50;1.00
5802;DHT22;2927;49.366;8.530;2022-09-12T14:07:57;25.40;1.00
5802;DHT22;2927;49.366;8.530;2022-09-12T14:10:39;25.70;1.00
5802;DHT22;2927;49.366;8.530;2022-09-12T14:13:15;25.50;1.00
5802;DHT22;2927;49.366;8.530;2022-09-12T14:15:48;25.60;1.00
5802;DHT22;2927;49.366;8.530;2022-09-12T14:18:28;25.50;1.00
5802;DHT22;2927;49.366;8.530;2022-09-12T14:20:57;25.60;1.00
5802;DHT22;2927;49.366;8.530;2022-09-12T14:23:29;25.50;1.00
5802;DHT22;2927;49.366;8.530;2022-09-12T14:25:57;25.40;1.00
5802;DHT22;2927;49.366;8.530;2022-09-12T14:28:25;25.60;99.90
5802;DHT22;2927;49.366;8.530;2022-09-12T14:34:07;25.40;99.90
5802;DHT22;2927;49.366;8.530;2022-09-12T14:36:40;25.50;99.90
5802;DHT22;2927;49.366;8.530;2022-09-12T14:39:16;25.60;99.90
5802;DHT22;2927;49.366;8.530;2022-09-12T14:41:42;25.60;99.90
5802;DHT22;2927;49.366;8.530;2022-09-12T14:44:25;25.30;99.90
5802;DHT22;2927;49.366;8.530;2022-09-12T14:46:51;25.20;99.90
5802;DHT22;2927;49.366;8.530;2022-09-12T14:49:35;25.00;99.90
5802;DHT22;2927;49.366;8.530;2022-09-12T14:52:07;24.90;1.00
5802;DHT22;2927;49.366;8.530;2022-09-12T14:54:53;25.20;1.00
5802;DHT22;2927;49.366;8.530;2022-09-12T14:57:33;25.40;1.00
5802;DHT22;2927;49.366;8.530;2022-09-12T15:02:36;25.90;99.90
5802;DHT22;2927;49.366;8.530;2022-09-12T15:10:16;26.40;99.90
5802;DHT22;2927;49.366;8.530;2022-09-12T15:12:42;27.00;99.90
5802;DHT22;2927;49.366;8.530;2022-09-12T15:15:19;27.80;99.90
5802;DHT22;2927;49.366;8.530;2022-09-12T15:17:44;28.40;99.90
5802;DHT22;2927;49.366;8.530;2022-09-12T15:20:11;29.00;99.90
5802;DHT22;2927;49.366;8.530;2022-09-12T15:22:38;29.40;99.90
5802;DHT22;2927;49.366;8.530;2022-09-12T15:25:05;29.20;99.90
5802;DHT22;2927;49.366;8.530;2022-09-12T15:27:31;29.70;99.90
5802;DHT22;2927;49.366;8.530;2022-09-12T15:29:57;29.80;99.90
5802;DHT22;2927;49.366;8.530;2022-09-12T15:32:27;29.40;99.90
5802;DHT22;2927;49.366;8.530;2022-09-12T15:34:53;28.80;99.90
5802;DHT22;2927;49.366;8.530;2022-09-12T15:37:21;28.40;99.90
5802;DHT22;2927;49.366;8.530;2022-09-12T15:39:48;28.60;99.90
5802;DHT22;2927;49.366;8.530;2022-09-12T15:42:15;28.10;99.90
5802;DHT22;2927;49.366;8.530;2022-09-12T15:44:41;27.70;99.90
5802;DHT22;2927;49.366;8.530;2022-09-12T15:47:13;27.30;99.90
5802;DHT22;2927;49.366;8.530;2022-09-12T15:49:39;27.20;99.90
5802;DHT22;2927;49.366;8.530;2022-09-12T15:52:06;27.10;99.90
5802;DHT22;2927;49.366;8.530;2022-09-12T15:54:31;27.20;99.90
5802;DHT22;2927;49.366;8.530;2022-09-12T15:56:57;27.40;99.90
5802;DHT22;2927;49.366;8.530;2022-09-12T15:59:23;27.60;99.90
5802;DHT22;2927;49.366;8.530;2022-09-12T16:01:48;28.00;99.90
5802;DHT22;2927;49.366;8.530;2022-09-12T16:04:22;27.80;99.90
5802;DHT22;2927;49.366;8.530;2022-09-12T16:06:51;26.90;99.90
5802;DHT22;2927;49.366;8.530;2022-09-12T16:09:17;26.60;99.90
5802;DHT22;2927;49.366;8.530;2022-09-12T16:11:42;26.70;99.90
5802;DHT22;2927;49.366;8.530;2022-09-12T16:14:10;26.70;99.90
5802;DHT22;2927;49.366;8.530;2022-09-12T16:16:37;26.60;99.90
5802;DHT22;2927;49.366;8.530;2022-09-12T16:19:03;26.60;99.90
5802;DHT22;2927;49.366;8.530;2022-09-12T16:21:28;26.60;99.90
5802;DHT22;2927;49.366;8.530;2022-09-12T16:23:54;26.50;99.90
5802;DHT22;2927;49.366;8.530;2022-09-12T16:26:19;26.20;99.90
5802;DHT22;2927;49.366;8.530;2022-09-12T16:28:45;25.90;99.90
5802;DHT22;2927;49.366;8.530;2022-09-12T16:31:12;25.70;99.90
5802;DHT22;2927;49.366;8.530;2022-09-12T16:33:38;25.70;99.90
5802;DHT22;2927;49.366;8.530;2022-09-12T16:36:09;25.50;99.90
5802;DHT22;2927;49.366;8.530;2022-09-12T16:38:43;25.40;99.90
5802;DHT22;2927;49.366;8.530;2022-09-12T16:41:09;25.50;99.90
5802;DHT22;2927;49.366;8.530;2022-09-12T16:43:35;25.50;99.90
5802;DHT22;2927;49.366;8.530;2022-09-12T16:46:02;25.30;99.90
5802;DHT22;2927;49.366;8.530;2022-09-12T16:48:28;25.10;99.90
5802;DHT22;2927;49.366;8.530;2022-09-12T16:50:58;24.90;99.90
5802;DHT22;2927;49.366;8.530;2022-09-12T16:53:29;24.90;99.90
5802;DHT22;2927;49.366;8.530;2022-09-12T16:55:55;24.80;99.90
5802;DHT22;2927;49.366;8.530;2022-09-12T16:58:21;24.60;99.90
5802;DHT22;2927;49.366;8.530;2022-09-12T17:00:46;24.50;99.90
5802;DHT22;2927;49.366;8.530;2022-09-12T17:03:12;24.30;1.00
5802;DHT22;2927;49.366;8.530;2022-09-12T17:05:38;24.20;1.00
5802;DHT22;2927;49.366;8.530;2022-09-12T17:08:03;24.10;1.00
5802;DHT22;2927;49.366;8.530;2022-09-12T17:10:29;24.00;1.00
5802;DHT22;2927;49.366;8.530;2022-09-12T17:12:55;24.00;1.00
5802;DHT22;2927;49.366;8.530;2022-09-12T17:15:22;23.90;1.00
5802;DHT22;2927;49.366;8.530;2022-09-12T17:17:47;23.80;1.00
5802;DHT22;2927;49.366;8.530;2022-09-12T17:20:13;23.70;1.00
5802;DHT22;2927;49.366;8.530;2022-09-12T17:22:38;23.70;1.00
5802;DHT22;2927;49.366;8.530;2022-09-12T17:25:04;23.60;1.00
5802;DHT22;2927;49.366;8.530;2022-09-12T17:27:30;23.60;1.00
5802;DHT22;2927;49.366;8.530;2022-09-12T17:29:55;23.50;1.00
5802;DHT22;2927;49.366;8.530;2022-09-12T17:32:21;23.40;1.00
5802;DHT22;2927;49.366;8.530;2022-09-12T17:34:46;23.40;1.00
5802;DHT22;2927;49.366;8.530;2022-09-12T17:37:12;23.30;1.00
5802;DHT22;2927;49.366;8.530;2022-09-12T17:39:38;23.20;1.00
5802;DHT22;2927;49.366;8.530;2022-09-12T17:42:04;23.20;1.00
5802;DHT22;2927;49.366;8.530;2022-09-12T17:44:30;23.00;1.00
5802;DHT22;2927;49.366;8.530;2022-09-12T17:46:56;23.00;1.00
5802;DHT22;2927;49.366;8.530;2022-09-12T17:49:22;22.90;1.00
5802;DHT22;2927;49.366;8.530;2022-09-12T17:51:48;22.80;1.00
5802;DHT22;2927;49.366;8.530;2022-09-12T17:54:15;22.70;99.90
5802;DHT22;2927;49.366;8.530;2022-09-12T17:56:42;22.60;1.00
5802;DHT22;2927;49.366;8.530;2022-09-12T17:59:13;22.50;1.00
5802;DHT22;2927;49.366;8.530;2022-09-12T18:01:39;22.50;25.40
5802;DHT22;2927;49.366;8.530;2022-09-12T18:04:24;22.40;99.90
5802;DHT22;2927;49.366;8.530;2022-09-12T18:06:51;22.30;99.90
5802;DHT22;2927;49.366;8.530;2022-09-12T18:09:22;22.20;1.00
5802;DHT22;2927;49.366;8.530;2022-09-12T18:11:49;22.10;1.00
5802;DHT22;2927;49.366;8.530;2022-09-12T18:14:16;22.10;99.90
5802;DHT22;2927;49.366;8.530;2022-09-12T18:16:42;22.00;99.90
5802;DHT22;2927;49.366;8.530;2022-09-12T18:19:08;21.90;99.90
5802;DHT22;2927;49.366;8.530;2022-09-12T18:21:34;21.80;99.90
5802;DHT22;2927;49.366;8.530;2022-09-12T18:23:59;21.70;99.90
5802;DHT22;2927;49.366;8.530;2022-09-12T18:26:26;21.70;99.90
5802;DHT22;2927;49.366;8.530;2022-09-12T18:28:52;21.60;99.90
5802;DHT22;2927;49.366;8.530;2022-09-12T18:31:19;21.60;99.90
5802;DHT22;2927;49.366;8.530;2022-09-12T18:33:46;21.40;99.90